Kezdőlap
METAR-TAF:

METAR-TAF

Repülőterek :

Amarillo, Texas, Amerikai Egyesült Államok

földrajzi szélesség: 35-13-12N, földrajzi hosszúság: 101-43-02W, magasság: 1099 m

Jelenlegi meteorológiai megfigyelések

A jelentés 1 órával és 16 perccel ezelõtt készült, 02:53 UTC
Déli szél 10 kt
Hőmérséklet 26°C
Páratartalom 58%
Légköri nyomás 1016 hPa
Látótávolság: 16.1 km
Derült ég

METAR: KAMA 130253Z 17010KT 10SM CLR 26/17 A2999 RMK AO2 SLP102 T02610172 53008

Idő: 23:09 (04:09 UTC)

Előrejelzés

A jelentés 4 órával és 49 perccel ezelõtt készült, 23:20 UTC
Az előrejelzés 13-én 00 óra UTC és 13-én 24 óra UTC között érvényes
Déli szél 11 kt
Látótávolság: 10 km
Derült ég

TAF: KAMA 122320Z 1300/1324 18011KT P6SM SKC

Meteorológiai megfigyelések és előrejelzések több, mint 4000 repülőtéren (METAR és TAF jelentéseket).

A térképen piros és sárga pontok jelzik az elérhető meteorológiai állomásokat.

Mozgassa az egeret a pont fölött, hogy megjelenjen az állomás neve.

Azután kattintson az időjárási megfigyelések és előrejelzések megtekintéséhez.

A térkép megváltoztatása: kattintson a fekete keresztel jelölt zöld gombra ráközelítéshez, a vonallal jelölt zöld gombra távolításhoz, vagy a zöld nyilakra a szomszédos térképek eléréséhez.


METAR-TAF: